createdAt,value
2018-04-14T00:01:07.914Z,6.00
2018-04-14T00:03:41.511Z,6.20
2018-04-14T00:06:15.072Z,6.40
2018-04-14T00:08:48.606Z,6.40
2018-04-14T00:11:22.234Z,6.30
2018-04-14T00:13:55.796Z,6.20
2018-04-14T00:16:29.389Z,6.10
2018-04-14T00:19:03.000Z,6.00
2018-04-14T00:21:36.528Z,5.90
2018-04-14T00:24:10.175Z,5.80
2018-04-14T00:26:43.788Z,5.80
2018-04-14T00:29:18.135Z,5.60
2018-04-14T00:31:51.746Z,5.60
2018-04-14T00:34:25.351Z,5.60
2018-04-14T00:36:58.912Z,5.50
2018-04-14T00:39:32.560Z,5.60
2018-04-14T00:42:06.243Z,5.70
2018-04-14T00:44:39.779Z,5.70
2018-04-14T00:47:13.328Z,5.70
2018-04-14T00:49:46.917Z,5.60
2018-04-14T00:52:20.434Z,5.50
2018-04-14T00:54:53.968Z,5.40
2018-04-14T00:57:27.687Z,5.30
2018-04-14T01:00:01.224Z,5.40
2018-04-14T01:02:34.719Z,5.40
2018-04-14T01:05:08.452Z,5.30
2018-04-14T01:07:41.993Z,5.20
2018-04-14T01:10:15.568Z,5.10
2018-04-14T01:12:49.371Z,5.10
2018-04-14T01:15:22.920Z,5.00
2018-04-14T01:17:57.249Z,4.70
2018-04-14T01:20:30.852Z,4.70
2018-04-14T01:23:04.383Z,4.80
2018-04-14T01:25:37.929Z,4.80
2018-04-14T01:28:11.509Z,4.80
2018-04-14T01:30:45.864Z,4.70
2018-04-14T01:33:19.452Z,4.60
2018-04-14T01:35:53.293Z,4.50
2018-04-14T01:38:26.934Z,4.40
2018-04-14T01:41:00.519Z,4.30
2018-04-14T01:43:34.085Z,4.20
2018-04-14T01:46:07.675Z,4.20
2018-04-14T01:48:41.202Z,4.10
2018-04-14T01:51:15.482Z,4.20
2018-04-14T01:53:49.219Z,4.10
2018-04-14T01:56:22.759Z,4.10
2018-04-14T01:58:56.323Z,4.10
2018-04-14T02:01:29.942Z,4.10
2018-04-14T02:04:03.436Z,4.10
2018-04-14T02:06:36.972Z,4.10
2018-04-14T02:09:11.310Z,4.10
2018-04-14T02:11:45.043Z,4.10
2018-04-14T02:14:18.602Z,4.00
2018-04-14T02:16:52.242Z,4.00
2018-04-14T02:19:25.836Z,4.10
2018-04-14T02:21:59.345Z,4.20
2018-04-14T02:24:33.634Z,4.10
2018-04-14T02:27:08.059Z,4.10
2018-04-14T02:29:41.650Z,4.10
2018-04-14T02:32:15.248Z,3.90
2018-04-14T02:34:48.830Z,3.90
2018-04-14T02:37:22.457Z,3.90
2018-04-14T02:39:56.768Z,3.90
2018-04-14T02:42:30.368Z,3.90
2018-04-14T02:45:03.912Z,3.90
2018-04-14T02:47:37.448Z,3.80
2018-04-14T02:50:11.080Z,3.70
2018-04-14T02:52:44.685Z,3.60
2018-04-14T02:55:18.288Z,3.60
2018-04-14T02:57:51.968Z,3.70
2018-04-14T03:00:25.588Z,3.60
2018-04-14T03:02:59.937Z,3.50
2018-04-14T03:05:33.658Z,3.50
2018-04-14T03:08:07.205Z,3.40
2018-04-14T03:10:40.931Z,3.40
2018-04-14T03:13:14.610Z,3.40
2018-04-14T03:15:48.210Z,3.40
2018-04-14T03:18:21.922Z,3.30
2018-04-14T03:20:55.513Z,3.30
2018-04-14T03:23:29.110Z,3.40
2018-04-14T03:26:02.683Z,3.30
2018-04-14T03:28:37.037Z,3.30
2018-04-14T03:31:10.753Z,3.30
2018-04-14T03:33:44.248Z,3.40
2018-04-14T03:36:17.834Z,3.30
2018-04-14T03:38:51.500Z,3.20
2018-04-14T03:41:25.095Z,3.20
2018-04-14T03:43:58.711Z,3.10
2018-04-14T03:46:32.205Z,3.20
2018-04-14T03:49:05.942Z,3.20
2018-04-14T03:51:40.355Z,3.30
2018-04-14T03:54:14.059Z,3.20
2018-04-14T03:56:47.762Z,3.30
2018-04-14T03:59:21.439Z,3.30
2018-04-14T04:01:54.949Z,3.30
2018-04-14T04:04:28.546Z,3.30
2018-04-14T04:07:02.242Z,3.20
2018-04-14T04:09:35.773Z,3.30
2018-04-14T04:12:09.374Z,3.20
2018-04-14T04:14:43.680Z,3.20
2018-04-14T04:17:17.410Z,3.20
2018-04-14T04:20:02.954Z,3.10
2018-04-14T04:22:48.461Z,3.00
2018-04-14T04:25:23.868Z,2.80
2018-04-14T04:27:57.575Z,2.70
2018-04-14T04:30:31.911Z,2.80
2018-04-14T04:33:05.644Z,2.70
2018-04-14T04:35:39.223Z,2.80
2018-04-14T04:38:12.929Z,2.80
2018-04-14T04:40:46.463Z,2.70
2018-04-14T04:43:19.985Z,2.80
2018-04-14T04:45:53.522Z,2.70
2018-04-14T04:48:27.253Z,2.70
2018-04-14T04:51:00.906Z,2.70
2018-04-14T04:53:34.410Z,2.70
2018-04-14T04:56:08.026Z,2.70
2018-04-14T04:58:41.648Z,2.70
2018-04-14T05:01:15.255Z,2.80
2018-04-14T05:03:48.802Z,2.80
2018-04-14T05:06:22.406Z,2.80
2018-04-14T05:08:56.046Z,3.00
2018-04-14T05:11:29.622Z,3.00
2018-04-14T05:14:03.093Z,3.10
2018-04-14T05:16:37.445Z,3.10
2018-04-14T05:19:11.827Z,3.20
2018-04-14T05:21:45.460Z,3.20
2018-04-14T05:24:19.055Z,3.20
2018-04-14T05:26:52.594Z,3.30
2018-04-14T05:29:26.288Z,3.40
2018-04-14T05:31:59.800Z,3.50
2018-04-14T05:34:33.462Z,3.50
2018-04-14T05:37:07.038Z,3.70
2018-04-14T05:39:41.283Z,3.80
2018-04-14T05:42:14.914Z,3.80
2018-04-14T05:44:48.485Z,3.90
2018-04-14T05:47:22.024Z,4.10
2018-04-14T05:49:56.399Z,4.20
2018-04-14T05:52:30.832Z,4.40
2018-04-14T05:55:04.655Z,4.40
2018-04-14T05:57:38.389Z,4.50
2018-04-14T06:00:12.054Z,4.70
2018-04-14T06:02:45.606Z,4.60
2018-04-14T06:05:19.206Z,4.70
2018-04-14T06:07:52.712Z,4.40
2018-04-14T06:10:26.266Z,4.60
2018-04-14T06:13:00.334Z,4.80
2018-04-14T06:15:34.568Z,4.90
2018-04-14T06:18:08.228Z,5.00
2018-04-14T06:20:42.708Z,5.40
2018-04-14T06:23:16.276Z,5.40
2018-04-14T06:25:49.923Z,5.60
2018-04-14T06:28:23.480Z,5.90
2018-04-14T06:30:57.074Z,6.10
2018-04-14T06:33:30.689Z,6.40
2018-04-14T06:36:05.279Z,6.70
2018-04-14T06:38:38.911Z,6.70
2018-04-14T06:41:12.523Z,6.90
2018-04-14T06:43:46.471Z,7.10
2018-04-14T06:46:20.899Z,7.50
2018-04-14T06:48:54.559Z,7.50
2018-04-14T06:51:28.165Z,7.70
2018-04-14T06:54:01.713Z,7.90
2018-04-14T06:56:35.357Z,8.10
2018-04-14T06:59:08.972Z,8.30
2018-04-14T07:01:42.667Z,8.50
2018-04-14T07:04:16.976Z,8.80
2018-04-14T07:06:50.587Z,8.80
2018-04-14T07:09:24.892Z,9.10
2018-04-14T07:11:58.518Z,9.10
2018-04-14T07:14:32.353Z,9.20
2018-04-14T07:17:06.063Z,9.40
2018-04-14T07:19:39.751Z,9.50
2018-04-14T07:22:13.367Z,9.70
2018-04-14T07:24:47.140Z,9.90
2018-04-14T07:27:20.718Z,10.10
2018-04-14T07:29:54.289Z,10.30
2018-04-14T07:32:28.085Z,10.40
2018-04-14T07:35:01.916Z,10.60
2018-04-14T07:37:36.400Z,10.70
2018-04-14T07:40:10.084Z,10.70
2018-04-14T07:42:43.637Z,10.60
2018-04-14T07:45:17.232Z,10.70
2018-04-14T07:47:50.846Z,10.90
2018-04-14T07:50:24.413Z,11.10
2018-04-14T07:52:57.936Z,11.30
2018-04-14T07:55:31.704Z,11.50
2018-04-14T07:58:05.441Z,11.60
2018-04-14T08:00:38.997Z,11.70
2018-04-14T08:03:12.577Z,11.90
2018-04-14T08:05:46.884Z,12.30
2018-04-14T08:08:27.307Z,12.20
2018-04-14T08:11:00.872Z,12.10
2018-04-14T08:13:34.560Z,12.10
2018-04-14T08:16:08.108Z,12.10
2018-04-14T08:18:41.726Z,12.20
2018-04-14T08:21:15.206Z,12.30
2018-04-14T08:23:49.001Z,12.50
2018-04-14T08:26:22.637Z,12.70
2018-04-14T08:28:56.120Z,12.90
2018-04-14T08:31:29.671Z,13.10
2018-04-14T08:34:03.442Z,13.30
2018-04-14T08:36:37.163Z,13.40
2018-04-14T08:39:11.092Z,13.50
2018-04-14T08:41:44.888Z,13.50
2018-04-14T08:44:18.458Z,13.70
2018-04-14T08:46:52.018Z,14.00
2018-04-14T08:49:26.375Z,14.40
2018-04-14T08:52:00.098Z,14.40
2018-04-14T08:54:33.701Z,14.50
2018-04-14T08:57:07.354Z,14.80
2018-04-14T08:59:41.100Z,15.00
2018-04-14T09:02:14.628Z,15.20
2018-04-14T09:04:48.350Z,15.40
2018-04-14T09:07:22.128Z,15.50
2018-04-14T09:09:55.759Z,15.50
2018-04-14T09:12:29.418Z,15.50
2018-04-14T09:15:02.927Z,15.30
2018-04-14T09:17:36.661Z,15.40
2018-04-14T09:20:10.323Z,15.50
2018-04-14T09:22:43.894Z,15.60
2018-04-14T09:25:17.468Z,15.50
2018-04-14T09:27:59.155Z,15.80
2018-04-14T09:30:33.631Z,15.80
2018-04-14T09:33:07.190Z,15.80
2018-04-14T09:35:41.553Z,16.10
2018-04-14T09:38:15.310Z,16.10
2018-04-14T09:40:48.845Z,15.70
2018-04-14T09:43:22.573Z,16.00
2018-04-14T09:45:56.131Z,16.20
2018-04-14T09:48:29.847Z,16.30
2018-04-14T09:51:03.419Z,16.00
2018-04-14T09:53:36.947Z,16.20
2018-04-14T09:56:10.549Z,16.20
2018-04-14T09:58:44.060Z,16.40
2018-04-14T10:01:23.353Z,16.60
2018-04-14T10:03:58.936Z,16.40
2018-04-14T10:06:32.671Z,16.50
2018-04-14T10:09:06.211Z,16.80
2018-04-14T10:11:39.829Z,17.10
2018-04-14T10:14:14.200Z,17.30
2018-04-14T10:16:47.804Z,17.30
2018-04-14T10:19:22.063Z,17.20
2018-04-14T10:21:55.784Z,17.20
2018-04-14T10:24:29.366Z,17.00
2018-04-14T10:27:02.983Z,17.30
2018-04-14T10:29:36.575Z,17.30
2018-04-14T10:32:10.165Z,17.20
2018-04-14T10:34:43.750Z,17.20
2018-04-14T10:37:17.376Z,17.50
2018-04-14T10:39:51.047Z,17.80
2018-04-14T10:42:24.579Z,17.90
2018-04-14T10:44:58.290Z,17.80
2018-04-14T10:47:31.864Z,17.90
2018-04-14T10:50:05.502Z,17.50
2018-04-14T10:52:39.081Z,17.60
2018-04-14T10:55:12.661Z,17.70
2018-04-14T10:57:46.249Z,17.80
2018-04-14T11:00:20.016Z,17.80
2018-04-14T11:02:53.571Z,17.80
2018-04-14T11:05:27.106Z,17.60
2018-04-14T11:08:00.699Z,17.60
2018-04-14T11:10:34.267Z,17.80
2018-04-14T11:13:07.819Z,17.80
2018-04-14T11:15:41.380Z,18.10
2018-04-14T11:18:15.067Z,18.10
2018-04-14T11:20:48.589Z,18.10
2018-04-14T11:23:22.307Z,17.90
2018-04-14T11:25:55.875Z,18.20
2018-04-14T11:28:30.202Z,18.00
2018-04-14T11:31:04.717Z,18.30
2018-04-14T11:33:38.352Z,18.30
2018-04-14T11:36:11.917Z,18.10
2018-04-14T11:38:46.246Z,18.40
2018-04-14T11:41:19.949Z,18.40
2018-04-14T11:43:53.668Z,18.40
2018-04-14T11:46:27.227Z,18.30
2018-04-14T11:49:00.851Z,18.20
2018-04-14T11:51:34.444Z,18.40
2018-04-14T11:54:08.004Z,18.50
2018-04-14T11:56:41.631Z,18.50
2018-04-14T11:59:15.193Z,18.30
2018-04-14T12:01:48.762Z,18.30
2018-04-14T12:04:22.357Z,18.30
2018-04-14T12:06:56.060Z,18.60
2018-04-14T12:09:29.595Z,18.20
2018-04-14T12:12:03.196Z,18.10
2018-04-14T12:14:36.762Z,18.20
2018-04-14T12:17:10.326Z,18.30
2018-04-14T12:19:43.970Z,18.60
2018-04-14T12:22:17.662Z,18.80
2018-04-14T12:24:51.240Z,18.80
2018-04-14T12:27:24.862Z,19.00
2018-04-14T12:29:58.474Z,18.70
2018-04-14T12:32:32.791Z,18.60
2018-04-14T12:35:06.403Z,18.60
2018-04-14T12:37:40.049Z,18.30
2018-04-14T12:40:13.565Z,18.50
2018-04-14T12:42:47.211Z,18.50
2018-04-14T12:45:20.779Z,18.50
2018-04-14T12:47:55.208Z,18.70
2018-04-14T12:50:28.796Z,18.70
2018-04-14T12:53:02.405Z,18.60
2018-04-14T12:55:35.996Z,18.60
2018-04-14T12:58:09.603Z,18.70
2018-04-14T13:00:43.191Z,18.80
2018-04-14T13:03:16.858Z,18.80
2018-04-14T13:05:50.390Z,18.90
2018-04-14T13:08:24.029Z,19.00
2018-04-14T13:10:57.618Z,19.10
2018-04-14T13:13:31.317Z,19.20
2018-04-14T13:16:04.904Z,18.90
2018-04-14T13:18:38.507Z,18.60
2018-04-14T13:21:12.835Z,18.90
2018-04-14T13:23:46.452Z,18.90
2018-04-14T13:26:19.996Z,18.80
2018-04-14T13:28:53.547Z,18.60
2018-04-14T13:31:27.121Z,18.70
2018-04-14T13:34:01.438Z,19.00
2018-04-14T13:36:35.299Z,18.90
2018-04-14T13:39:08.787Z,19.10
2018-04-14T13:41:42.386Z,19.20
2018-04-14T13:44:15.949Z,19.20
2018-04-14T13:46:49.499Z,19.20
2018-04-14T13:49:23.051Z,19.10
2018-04-14T13:51:57.365Z,18.90
2018-04-14T13:54:31.062Z,18.80
2018-04-14T13:57:04.576Z,19.10
2018-04-14T13:59:38.069Z,19.10
2018-04-14T14:02:12.607Z,19.00
2018-04-14T14:04:46.276Z,19.00
2018-04-14T14:07:19.798Z,19.10
2018-04-14T14:09:53.389Z,19.10
2018-04-14T14:12:26.970Z,19.30
2018-04-14T14:15:01.319Z,19.60
2018-04-14T14:17:35.016Z,19.60
2018-04-14T14:20:08.604Z,19.20
2018-04-14T14:22:42.153Z,19.00
2018-04-14T14:25:15.729Z,19.40
2018-04-14T14:27:49.310Z,19.50
2018-04-14T14:30:22.824Z,19.50
2018-04-14T14:32:57.152Z,19.60
2018-04-14T14:35:31.451Z,19.30
2018-04-14T14:38:05.017Z,19.30
2018-04-14T14:40:38.688Z,19.20
2018-04-14T14:43:12.352Z,19.20
2018-04-14T14:45:45.956Z,19.00
2018-04-14T14:48:19.549Z,19.00
2018-04-14T14:50:53.158Z,18.90
2018-04-14T14:53:26.684Z,19.10
2018-04-14T14:56:00.345Z,19.40
2018-04-14T14:58:34.136Z,19.40
2018-04-14T15:01:07.853Z,19.60
2018-04-14T15:03:42.114Z,19.80
2018-04-14T15:06:15.717Z,19.90
2018-04-14T15:08:49.255Z,19.80
2018-04-14T15:11:23.594Z,19.80
2018-04-14T15:13:57.270Z,19.80
2018-04-14T15:16:30.849Z,19.80
2018-04-14T15:19:04.380Z,19.80
2018-04-14T15:21:38.260Z,19.60
2018-04-14T15:24:11.817Z,19.30
2018-04-14T15:26:46.240Z,19.30
2018-04-14T15:29:19.914Z,19.30
2018-04-14T15:31:53.542Z,19.10
2018-04-14T15:34:27.163Z,19.00
2018-04-14T15:37:00.973Z,19.10
2018-04-14T15:39:34.512Z,19.30
2018-04-14T15:42:08.166Z,19.30
2018-04-14T15:44:41.763Z,19.40
2018-04-14T15:47:16.063Z,19.40
2018-04-14T15:49:49.781Z,19.40
2018-04-14T15:52:23.473Z,19.40
2018-04-14T15:54:57.787Z,19.30
2018-04-14T15:57:31.459Z,19.30
2018-04-14T16:00:05.094Z,19.00
2018-04-14T16:02:38.667Z,19.10
2018-04-14T16:05:12.188Z,18.80
2018-04-14T16:07:45.765Z,18.90
2018-04-14T16:10:19.406Z,18.80
2018-04-14T16:12:52.993Z,18.80
2018-04-14T16:15:26.581Z,19.10
2018-04-14T16:18:00.155Z,19.20
2018-04-14T16:20:33.714Z,18.90
2018-04-14T16:23:07.395Z,18.50
2018-04-14T16:25:40.971Z,18.60
2018-04-14T16:28:14.504Z,18.70
2018-04-14T16:30:48.155Z,18.90
2018-04-14T16:33:21.788Z,18.80
2018-04-14T16:35:56.155Z,18.50
2018-04-14T16:38:29.843Z,18.40
2018-04-14T16:41:03.328Z,18.10
2018-04-14T16:43:37.016Z,18.20
2018-04-14T16:46:10.623Z,18.30
2018-04-14T16:48:44.220Z,18.10
2018-04-14T16:51:18.578Z,18.10
2018-04-14T16:53:52.104Z,18.10
2018-04-14T16:56:25.649Z,18.00
2018-04-14T16:58:59.170Z,18.20
2018-04-14T17:01:32.719Z,18.10
2018-04-14T17:04:06.326Z,18.20
2018-04-14T17:06:39.931Z,18.20
2018-04-14T17:09:13.440Z,18.20
2018-04-14T17:11:47.013Z,18.40
2018-04-14T17:14:20.737Z,18.20
2018-04-14T17:16:54.384Z,18.00
2018-04-14T17:19:28.034Z,17.90
2018-04-14T17:22:01.614Z,17.80
2018-04-14T17:24:35.220Z,17.60
2018-04-14T17:27:08.974Z,17.50
2018-04-14T17:29:42.652Z,17.30
2018-04-14T17:32:16.182Z,17.20
2018-04-14T17:34:49.741Z,17.40
2018-04-14T17:37:23.292Z,17.20
2018-04-14T17:39:56.862Z,17.30
2018-04-14T17:42:30.595Z,17.30
2018-04-14T17:45:04.867Z,17.20
2018-04-14T17:47:39.187Z,17.20
2018-04-14T17:50:12.907Z,17.20
2018-04-14T17:52:47.299Z,16.80
2018-04-14T17:55:21.009Z,16.80
2018-04-14T17:57:54.611Z,16.80
2018-04-14T18:00:28.231Z,16.80
2018-04-14T18:03:01.802Z,16.80
2018-04-14T18:05:35.322Z,16.80
2018-04-14T18:08:08.926Z,16.70
2018-04-14T18:10:42.501Z,16.70
2018-04-14T18:13:16.834Z,16.70
2018-04-14T18:15:51.343Z,16.70
2018-04-14T18:18:25.668Z,16.70
2018-04-14T18:20:59.368Z,16.70
2018-04-14T18:23:32.923Z,16.70
2018-04-14T18:26:06.505Z,16.70
2018-04-14T18:28:40.781Z,16.70
2018-04-14T18:31:14.521Z,16.70
2018-04-14T18:33:48.079Z,16.70
2018-04-14T18:36:21.575Z,16.50
2018-04-14T18:38:55.195Z,16.50
2018-04-14T18:41:28.864Z,16.60
2018-04-14T18:44:02.394Z,16.50
2018-04-14T18:46:35.992Z,16.50
2018-04-14T18:49:09.594Z,16.50
2018-04-14T18:51:43.232Z,16.40
2018-04-14T18:54:16.832Z,16.30
2018-04-14T18:56:50.393Z,16.20
2018-04-14T18:59:23.871Z,16.10
2018-04-14T19:01:58.207Z,15.80
2018-04-14T19:04:31.938Z,15.80
2018-04-14T19:07:05.518Z,15.50
2018-04-14T19:09:39.120Z,15.30
2018-04-14T19:12:12.844Z,15.20
2018-04-14T19:14:46.403Z,15.10
2018-04-14T19:17:19.935Z,15.00
2018-04-14T19:19:53.546Z,14.90
2018-04-14T19:22:27.105Z,14.90
2018-04-14T19:25:00.839Z,14.90
2018-04-14T19:27:34.436Z,14.80
2018-04-14T19:30:07.998Z,14.80
2018-04-14T19:32:42.130Z,14.80
2018-04-14T19:35:16.467Z,14.60
2018-04-14T19:37:50.206Z,14.60
2018-04-14T19:40:24.469Z,14.80
2018-04-14T19:42:58.192Z,14.80
2018-04-14T19:45:32.513Z,14.80
2018-04-14T19:48:06.214Z,14.80
2018-04-14T19:50:39.864Z,14.80
2018-04-14T19:53:13.413Z,14.80
2018-04-14T19:55:47.013Z,14.90
2018-04-14T19:58:20.592Z,14.30
2018-04-14T20:00:54.202Z,14.10
2018-04-14T20:03:28.405Z,13.40
2018-04-14T20:06:02.935Z,12.70
2018-04-14T20:08:37.458Z,12.80
2018-04-14T20:11:11.774Z,13.10
2018-04-14T20:13:45.499Z,13.10
2018-04-14T20:16:19.792Z,13.50
2018-04-14T20:18:54.433Z,13.60
2018-04-14T20:21:28.150Z,13.60
2018-04-14T20:24:01.825Z,13.70
2018-04-14T20:26:35.360Z,13.70
2018-04-14T20:29:08.939Z,12.70
2018-04-14T20:31:42.538Z,11.80
2018-04-14T20:34:16.124Z,12.00
2018-04-14T20:36:49.741Z,12.40
2018-04-14T20:39:23.613Z,12.60
2018-04-14T20:41:57.443Z,12.70
2018-04-14T20:44:31.038Z,12.80
2018-04-14T20:47:04.646Z,12.80
2018-04-14T20:49:38.253Z,13.00
2018-04-14T20:52:11.826Z,13.00
2018-04-14T20:54:46.159Z,12.80
2018-04-14T20:57:20.671Z,12.60
2018-04-14T20:59:54.374Z,12.60
2018-04-14T21:02:28.767Z,12.20
2018-04-14T21:05:02.544Z,12.20
2018-04-14T21:07:36.094Z,12.30
2018-04-14T21:10:09.824Z,12.30
2018-04-14T21:12:44.269Z,12.20
2018-04-14T21:15:18.015Z,12.20
2018-04-14T21:17:52.375Z,12.10
2018-04-14T21:20:25.941Z,12.10
2018-04-14T21:22:59.553Z,11.90
2018-04-14T21:25:33.103Z,11.90
2018-04-14T21:28:06.671Z,11.80
2018-04-14T21:30:40.979Z,11.40
2018-04-14T21:33:14.803Z,11.40
2018-04-14T21:35:49.211Z,11.40
2018-04-14T21:38:22.911Z,11.40
2018-04-14T21:40:56.512Z,11.40
2018-04-14T21:43:30.118Z,11.50
2018-04-14T21:46:03.647Z,11.50
2018-04-14T21:48:37.375Z,11.60
2018-04-14T21:51:10.916Z,11.50
2018-04-14T21:53:44.511Z,11.40
2018-04-14T21:56:18.285Z,11.30
2018-04-14T21:58:51.858Z,11.40
2018-04-14T22:01:26.221Z,10.80
2018-04-14T22:03:59.717Z,10.80
2018-04-14T22:06:33.304Z,10.70
2018-04-14T22:09:06.825Z,10.60
2018-04-14T22:11:41.255Z,10.70
2018-04-14T22:14:27.558Z,10.70
2018-04-14T22:17:01.111Z,10.70
2018-04-14T22:19:34.792Z,10.80
2018-04-14T22:22:09.118Z,10.50
2018-04-14T22:24:42.684Z,10.50
2018-04-14T22:27:16.269Z,10.60
2018-04-14T22:29:49.840Z,10.60
2018-04-14T22:32:23.460Z,10.60
2018-04-14T22:34:57.070Z,10.50
2018-04-14T22:37:30.668Z,8.90
2018-04-14T22:40:04.443Z,9.10
2018-04-14T22:42:38.108Z,9.20
2018-04-14T22:45:11.692Z,9.40
2018-04-14T22:47:45.401Z,9.60
2018-04-14T22:50:19.891Z,9.60
2018-04-14T22:52:53.647Z,9.60
2018-04-14T22:55:27.194Z,9.70
2018-04-14T22:58:00.812Z,9.50
2018-04-14T23:00:34.404Z,9.50
2018-04-14T23:03:07.944Z,9.50
2018-04-14T23:05:41.537Z,9.50
2018-04-14T23:08:15.804Z,9.70
2018-04-14T23:10:49.551Z,9.60
2018-04-14T23:13:23.102Z,9.70
2018-04-14T23:15:56.658Z,9.60
2018-04-14T23:18:30.229Z,8.70
2018-04-14T23:21:03.728Z,8.80
2018-04-14T23:23:38.233Z,9.00
2018-04-14T23:26:12.027Z,9.00
2018-04-14T23:28:45.740Z,8.90
2018-04-14T23:31:19.356Z,9.00
2018-04-14T23:33:52.945Z,9.10
2018-04-14T23:36:26.473Z,9.10
2018-04-14T23:39:00.944Z,9.00
2018-04-14T23:41:34.711Z,8.90
2018-04-14T23:44:09.022Z,8.70
2018-04-14T23:46:42.722Z,8.70
2018-04-14T23:49:17.080Z,8.70
2018-04-14T23:51:50.723Z,8.60
2018-04-14T23:54:24.520Z,8.00
2018-04-14T23:56:58.104Z,7.40
2018-04-14T23:59:31.767Z,7.00
